Pine Galaxy — C6TT5 — position and weather

sailwx.info

Track history (hours):
 
Tides and Currents Weather Stations Pressure Air Temp Water Temp Dewpoint Dewpoint Depression Visibility Wind Speed Wind Dir Waves Ship Positions

Pine Galaxy

Last reported at 2015-Apr-22 08:32 UTC. Time now 2015-May-23 05:51 UTC.
Position N 23°47' E 120°10'.
Warning: this ship's position is 30 days out of date.

Length 147 m; draft 5.9 m.

Type: Ship. MMSI: 311772000.

Date/timePositionNaut miles runAvg speedWind from/ knotsBaromVisibWave heightAir tempDewpointWater temp
2015-Apr-22 08:32N 23°47' E 120°10'4 3.4
2015-Apr-22 07:24N 23°50' E 120°07'6211.7
2015-Apr-22 02:07N 24°51' E 120°19'39112.8
2015-Apr-20 19:29N 30°48' E 123°19'2914.3
2015-Apr-20 17:29N 30°55' E 122°47'1313.3
2015-Apr-20 16:28N 30°59' E 122°32'1111.5
2015-Apr-20 15:32N 31°02' E 122°20'8 7.5
2015-Apr-20 14:32N 31°03' E 122°11'8 8.0
2015-Apr-20 13:33N 31°05' E 122°02'10 9.7
2015-Apr-20 12:33N 31°09' E 121°52'1312.7
2015-Apr-20 11:33N 31°19' E 121°43'1111.4
2015-Apr-20 10:33N 31°25' E 121°31'1111.5
2015-Apr-20 09:33N 31°32' E 121°21'1414.1
2015-Apr-20 08:33N 31°42' E 121°09'1211.3
2015-Apr-20 07:28N 31°47' E 120°56'1011.3
2015-Apr-20 06:33N 31°57' E 120°51'1110.8
2015-Apr-20 05:33N 31°60' E 120°39'1010.2
2015-Apr-20 04:33N 31°60' E 120°27'2 1.4
2015-Apr-20 03:30N 31°58' E 120°26'0 0.0
2015-Apr-20 02:30N 31°58' E 120°26'0 0.0
2015-Apr-20 01:33N 31°58' E 120°26'0 0.0
2015-Apr-20 00:30N 31°58' E 120°26'0 0.0
2015-Apr-19 23:30N 31°58' E 120°26'0 0.0
2015-Apr-19 22:30N 31°58' E 120°26'0 0.0
2015-Apr-19 21:33N 31°58' E 120°26'0 0.0
2015-Apr-19 20:33N 31°58' E 120°26'0 0.0
2015-Apr-19 19:33N 31°58' E 120°26'0 0.0
2015-Apr-19 18:33N 31°58' E 120°26'0 0.0
2015-Apr-19 17:33N 31°58' E 120°26'0 0.0
2015-Apr-19 16:33N 31°58' E 120°26'0 0.0
2015-Apr-19 15:30N 31°58' E 120°26'0 0.0
2015-Apr-19 14:33N 31°58' E 120°26'0 0.0
2015-Apr-19 13:33N 31°58' E 120°26'5 5.5
2015-Apr-19 12:33N 31°58' E 120°20'1313.5
2015-Apr-19 11:33N 31°57' E 120°04'1613.3
2015-Apr-19 10:20N 32°11' E 119°53'5 0.1
2015-Apr-17 08:18N 32°15' E 119°53'1012.9
2015-Apr-17 07:32N 32°05' E 119°55'1212.3
2015-Apr-17 06:33N 31°57' E 120°06'1 1.1
2015-Apr-17 05:18N 31°56' E 120°07'0 0.0
2015-Apr-17 04:30N 31°56' E 120°07'0 0.0
2015-Apr-17 03:30N 31°56' E 120°07'0 0.0
2015-Apr-17 02:30N 31°56' E 120°07'0 0.0
2015-Apr-17 01:24N 31°56' E 120°07'6 0.4
2015-Apr-16 09:27N 31°56' E 120°14'9 9.5
2015-Apr-16 08:33N 31°58' E 120°24'6 6.3
2015-Apr-16 07:33N 32°02' E 120°30'1311.6
2015-Apr-16 06:27N 32°01' E 120°45'2210.4
2015-Apr-16 04:21N 31°46' E 121°04'1013.1
2015-Apr-16 03:34N 31°39' E 121°13'6 5.5
2015-Apr-16 02:33N 31°35' E 121°17'0 0.0
2015-Apr-15 06:33N 31°35' E 121°17'6 6.2
2015-Apr-15 05:33N 31°31' E 121°23'10 9.6
2015-Apr-15 04:33N 31°25' E 121°31'9 8.8
2015-Apr-15 03:33N 31°21' E 121°40'1111.0
2015-Apr-15 02:33N 31°16' E 121°52'1111.1
2015-Apr-15 01:33N 31°14' E 122°05'1010.3
2015-Apr-15 00:33N 31°08' E 122°15'10 9.9
2015-Apr-14 23:33N 31°07' E 122°26'9 8.5
2015-Apr-14 22:33N 31°12' E 122°34'1 1.3
2015-Apr-14 21:33N 31°13' E 122°35'0 0.0
2015-Apr-14 20:30N 31°13' E 122°35'0 0.1
2015-Apr-14 19:33N 31°13' E 122°35'0 0.1
2015-Apr-14 18:27N 31°13' E 122°35'0 0.0
2015-Apr-14 17:24N 31°13' E 122°35'0 0.0
2015-Apr-14 16:33N 31°13' E 122°35'0 0.0
2015-Apr-14 15:15N 31°13' E 122°35'0 0.0
2015-Apr-14 14:33N 31°13' E 122°35'0 0.0
2015-Apr-14 12:30N 31°13' E 122°35'0 0.0
2015-Apr-14 11:24N 31°13' E 122°35'0 0.0
2015-Apr-14 10:21N 31°13' E 122°35'117 2.5
2015-Apr-12 11:32N 31°51' E 124°44'  
Track history (hours):
 
Tides and Currents Weather Stations Pressure Air Temp Water Temp Dewpoint Dewpoint Depression Visibility Wind Speed Wind Dir Waves Ship Positions

Pine Galaxy

Last reported at 2015-Apr-22 08:32 UTC. Time now 2015-May-23 05:51 UTC.
Position N 23°47' E 120°10'.
Warning: this ship's position is 30 days out of date.

Length 147 m; draft 5.9 m.

Type: Ship. MMSI: 311772000.

Date/timePositionNaut miles runAvg speedWind from/ knotsBaromVisibWave heightAir tempDewpointWater temp
2015-Apr-22 08:32N 23°47' E 120°10'4 3.4
2015-Apr-22 07:24N 23°50' E 120°07'6211.7
2015-Apr-22 02:07N 24°51' E 120°19'39112.8
2015-Apr-20 19:29N 30°48' E 123°19'2914.3
2015-Apr-20 17:29N 30°55' E 122°47'1313.3
2015-Apr-20 16:28N 30°59' E 122°32'1111.5
2015-Apr-20 15:32N 31°02' E 122°20'8 7.5
2015-Apr-20 14:32N 31°03' E 122°11'8 8.0
2015-Apr-20 13:33N 31°05' E 122°02'10 9.7
2015-Apr-20 12:33N 31°09' E 121°52'1312.7
2015-Apr-20 11:33N 31°19' E 121°43'1111.4
2015-Apr-20 10:33N 31°25' E 121°31'1111.5
2015-Apr-20 09:33N 31°32' E 121°21'1414.1
2015-Apr-20 08:33N 31°42' E 121°09'1211.3
2015-Apr-20 07:28N 31°47' E 120°56'1011.3
2015-Apr-20 06:33N 31°57' E 120°51'1110.8
2015-Apr-20 05:33N 31°60' E 120°39'1010.2
2015-Apr-20 04:33N 31°60' E 120°27'2 1.4
2015-Apr-20 03:30N 31°58' E 120°26'0 0.0
2015-Apr-20 02:30N 31°58' E 120°26'0 0.0
2015-Apr-20 01:33N 31°58' E 120°26'0 0.0
2015-Apr-20 00:30N 31°58' E 120°26'0 0.0
2015-Apr-19 23:30N 31°58' E 120°26'0 0.0
2015-Apr-19 22:30N 31°58' E 120°26'0 0.0
2015-Apr-19 21:33N 31°58' E 120°26'0 0.0
2015-Apr-19 20:33N 31°58' E 120°26'0 0.0
2015-Apr-19 19:33N 31°58' E 120°26'0 0.0
2015-Apr-19 18:33N 31°58' E 120°26'0 0.0
2015-Apr-19 17:33N 31°58' E 120°26'0 0.0
2015-Apr-19 16:33N 31°58' E 120°26'0 0.0
2015-Apr-19 15:30N 31°58' E 120°26'0 0.0
2015-Apr-19 14:33N 31°58' E 120°26'0 0.0
2015-Apr-19 13:33N 31°58' E 120°26'5 5.5
2015-Apr-19 12:33N 31°58' E 120°20'1313.5
2015-Apr-19 11:33N 31°57' E 120°04'1613.3
2015-Apr-19 10:20N 32°11' E 119°53'5 0.1
2015-Apr-17 08:18N 32°15' E 119°53'1012.9
2015-Apr-17 07:32N 32°05' E 119°55'1212.3
2015-Apr-17 06:33N 31°57' E 120°06'1 1.1
2015-Apr-17 05:18N 31°56' E 120°07'0 0.0
2015-Apr-17 04:30N 31°56' E 120°07'0 0.0
2015-Apr-17 03:30N 31°56' E 120°07'0 0.0
2015-Apr-17 02:30N 31°56' E 120°07'0 0.0
2015-Apr-17 01:24N 31°56' E 120°07'6 0.4
2015-Apr-16 09:27N 31°56' E 120°14'9 9.5
2015-Apr-16 08:33N 31°58' E 120°24'6 6.3
2015-Apr-16 07:33N 32°02' E 120°30'1311.6
2015-Apr-16 06:27N 32°01' E 120°45'2210.4
2015-Apr-16 04:21N 31°46' E 121°04'1013.1
2015-Apr-16 03:34N 31°39' E 121°13'6 5.5
2015-Apr-16 02:33N 31°35' E 121°17'0 0.0
2015-Apr-15 06:33N 31°35' E 121°17'6 6.2
2015-Apr-15 05:33N 31°31' E 121°23'10 9.6
2015-Apr-15 04:33N 31°25' E 121°31'9 8.8
2015-Apr-15 03:33N 31°21' E 121°40'1111.0
2015-Apr-15 02:33N 31°16' E 121°52'1111.1
2015-Apr-15 01:33N 31°14' E 122°05'1010.3
2015-Apr-15 00:33N 31°08' E 122°15'10 9.9
2015-Apr-14 23:33N 31°07' E 122°26'9 8.5
2015-Apr-14 22:33N 31°12' E 122°34'1 1.3
2015-Apr-14 21:33N 31°13' E 122°35'0 0.0
2015-Apr-14 20:30N 31°13' E 122°35'0 0.1
2015-Apr-14 19:33N 31°13' E 122°35'0 0.1
2015-Apr-14 18:27N 31°13' E 122°35'0 0.0
2015-Apr-14 17:24N 31°13' E 122°35'0 0.0
2015-Apr-14 16:33N 31°13' E 122°35'0 0.0
2015-Apr-14 15:15N 31°13' E 122°35'0 0.0
2015-Apr-14 14:33N 31°13' E 122°35'0 0.0
2015-Apr-14 12:30N 31°13' E 122°35'0 0.0
2015-Apr-14 11:24N 31°13' E 122°35'0 0.0
2015-Apr-14 10:21N 31°13' E 122°35'117 2.5
2015-Apr-12 11:32N 31°51' E 124°44'  

Dump ship's entire track history